CheckWX is a tool to help pilots better visualize weather data.  It is not intended as a substitute for an official pre-flight weather briefing.

21:01:47 UTC

KPTK METAR
Oakland County International Airport
Pontiac, Michigan, USA
Current

9 mins ago

KPTK 232053Z 26022G31KT 10SM FEW200 23/08 A2991 RMK AO2 PK WND 27031/2047 SLP124 T02330078 51007
Observed
May-23 @ 20:53 UTC
Wind
  • 260° at 22 KTS
  • Gusting to 31 KTS
Visibility
10 SM
Flight Rules
VFR
Cloud Levels
  • Few at 20,000' AGL
Temperature
23°C / 73°F
Dewpoint
C / 46°F
Humidity
38%
Altimeter
29.91" Hg
Pressure
1012.92 hPa
Previous

1 hour ago

KPTK 231953Z 25023G31KT 10SM FEW200 24/07 A2991 RMK AO2 PK WND 27039/1906 SLP123 T02390072
Observed
May-23 @ 19:53 UTC
Wind
  • 250° at 23 KTS
  • Gusting to 31 KTS
Visibility
10 SM
Flight Rules
VFR
Cloud Levels
  • Few at 20,000' AGL
Temperature
24°C / 75°F
Dewpoint
C / 45°F
Humidity
34%
Altimeter
29.91" Hg
Pressure
1012.92 hPa
Previous

2 hours ago

KPTK 231853Z 26025G43KT 10SM FEW042 FEW200 24/07 A2989 RMK AO2 PK WND 27043/1846 SLP116 T02440072
Observed
May-23 @ 18:53 UTC
Wind
  • 260° at 25 KTS
  • Gusting to 43 KTS
Visibility
10 SM
Flight Rules
VFR
Cloud Levels
  • Few at 4,200' AGL
  • Few at 20,000' AGL
Temperature
24°C / 75°F
Dewpoint
C / 45°F
Humidity
34%
Altimeter
29.89" Hg
Pressure
1012.22 hPa